createdAt,value
2022-12-16T00:02:09.221Z,29.73
2022-12-16T00:04:36.278Z,30.88
2022-12-16T00:07:03.858Z,28.90
2022-12-16T00:09:31.364Z,26.92
2022-12-16T00:11:58.978Z,28.88
2022-12-16T00:14:29.206Z,28.25
2022-12-16T00:16:56.799Z,24.33
2022-12-16T00:19:24.770Z,24.23
2022-12-16T00:21:52.202Z,29.40
2022-12-16T00:24:21.844Z,26.00
2022-12-16T00:26:49.047Z,23.98
2022-12-16T00:29:18.219Z,27.25
2022-12-16T00:31:48.162Z,28.13
2022-12-16T00:34:16.247Z,27.27
2022-12-16T00:36:43.848Z,24.67
2022-12-16T00:39:11.358Z,25.95
2022-12-16T00:41:38.602Z,26.80
2022-12-16T00:44:05.685Z,26.80
2022-12-16T00:46:32.735Z,27.52
2022-12-16T00:48:59.760Z,27.95
2022-12-16T00:51:26.915Z,28.38
2022-12-16T00:53:53.739Z,25.75
2022-12-16T00:56:21.279Z,27.20
2022-12-16T00:58:48.172Z,21.90
2022-12-16T01:01:15.141Z,24.98
2022-12-16T01:03:42.520Z,29.77
2022-12-16T01:06:11.357Z,26.95
2022-12-16T01:08:38.362Z,23.85
2022-12-16T01:11:06.019Z,28.65
2022-12-16T01:13:33.502Z,23.27
2022-12-16T01:16:01.488Z,27.13
2022-12-16T01:18:28.466Z,26.45
2022-12-16T01:21:02.769Z,25.30
2022-12-16T01:23:29.852Z,29.02
2022-12-16T01:26:00.017Z,26.50
2022-12-16T01:28:28.759Z,28.42
2022-12-16T01:31:03.797Z,22.83
2022-12-16T01:33:33.586Z,23.40
2022-12-16T01:36:07.243Z,24.23
2022-12-16T01:38:35.231Z,26.77
2022-12-16T01:41:04.587Z,22.48
2022-12-16T01:43:35.882Z,26.05
2022-12-16T01:46:11.951Z,26.40
2022-12-16T01:49:02.048Z,23.35
2022-12-16T01:51:36.616Z,21.42
2022-12-16T01:54:15.128Z,24.92
2022-12-16T01:56:56.963Z,21.90
2022-12-16T01:59:27.304Z,27.00
2022-12-16T02:04:21.551Z,20.15
2022-12-16T02:06:49.035Z,20.55
2022-12-16T02:09:18.043Z,23.23
2022-12-16T02:12:03.319Z,22.25
2022-12-16T02:14:55.652Z,25.48
2022-12-16T02:17:46.205Z,22.40
2022-12-16T02:20:13.637Z,19.35
2022-12-16T02:23:10.876Z,26.70
2022-12-16T02:26:04.861Z,21.48
2022-12-16T02:28:55.313Z,21.77
2022-12-16T02:31:27.230Z,18.23
2022-12-16T02:34:00.332Z,26.50
2022-12-16T02:36:39.422Z,16.63
2022-12-16T02:39:20.208Z,19.83
2022-12-16T02:42:07.323Z,25.77
2022-12-16T02:44:51.281Z,20.27
2022-12-16T02:47:19.678Z,20.65
2022-12-16T02:49:49.776Z,23.40
2022-12-16T02:52:23.955Z,20.75
2022-12-16T02:54:57.591Z,22.52
2022-12-16T02:57:54.790Z,20.85
2022-12-16T03:00:23.865Z,24.35
2022-12-16T03:02:56.516Z,15.35
2022-12-16T03:05:40.874Z,11.70
2022-12-16T03:08:23.271Z,18.17
2022-12-16T03:10:57.896Z,20.75
2022-12-16T03:13:31.407Z,24.48
2022-12-16T03:16:01.463Z,21.88
2022-12-16T03:18:30.020Z,20.23
2022-12-16T03:21:06.565Z,21.10
2022-12-16T03:26:39.284Z,16.17
2022-12-16T03:29:16.217Z,19.98
2022-12-16T03:31:49.787Z,19.48
2022-12-16T03:34:36.733Z,16.13
2022-12-16T03:37:07.311Z,20.92
2022-12-16T03:39:39.557Z,13.43
2022-12-16T03:42:07.333Z,8.80
2022-12-16T03:44:35.900Z,11.68
2022-12-16T03:47:02.826Z,8.85
2022-12-16T03:49:29.625Z,7.05
2022-12-16T03:51:56.700Z,5.95
2022-12-16T03:54:24.308Z,8.43
2022-12-16T03:56:51.549Z,9.25
2022-12-16T03:59:18.416Z,8.32
2022-12-16T04:01:46.344Z,9.77
2022-12-16T04:04:13.368Z,9.00
2022-12-16T04:06:45.914Z,6.78
2022-12-16T04:09:13.409Z,8.30
2022-12-16T04:11:59.872Z,9.02
2022-12-16T04:14:51.797Z,8.38
2022-12-16T04:17:39.825Z,6.88
2022-12-16T04:20:34.313Z,5.78
2022-12-16T04:23:20.404Z,8.85
2022-12-16T04:25:47.560Z,6.72
2022-12-16T04:28:14.524Z,8.18
2022-12-16T04:30:41.631Z,3.90
2022-12-16T04:33:30.147Z,7.05
2022-12-16T04:36:15.872Z,9.68
2022-12-16T04:39:04.608Z,4.72
2022-12-16T04:41:49.879Z,8.07
2022-12-16T04:44:35.357Z,5.53
2022-12-16T04:47:21.285Z,8.18
2022-12-16T04:50:06.668Z,7.53
2022-12-16T04:52:52.120Z,7.55
2022-12-16T04:55:37.428Z,9.07
2022-12-16T04:58:23.589Z,7.28
2022-12-16T05:01:09.680Z,7.40
2022-12-16T05:03:55.624Z,5.30
2022-12-16T05:06:41.273Z,7.63
2022-12-16T05:09:26.633Z,6.75
2022-12-16T05:12:12.700Z,5.55
2022-12-16T05:14:58.545Z,6.20
2022-12-16T05:17:43.809Z,8.45
2022-12-16T05:20:29.486Z,10.45
2022-12-16T05:23:15.468Z,5.53
2022-12-16T05:26:01.298Z,5.63
2022-12-16T05:28:47.346Z,11.35
2022-12-16T05:31:32.978Z,10.75
2022-12-16T05:34:18.438Z,7.78
2022-12-16T05:37:03.674Z,9.18
2022-12-16T05:39:49.148Z,9.95
2022-12-16T05:42:34.414Z,10.05
2022-12-16T05:45:19.821Z,8.10
2022-12-16T05:48:07.385Z,11.27
2022-12-16T05:50:53.389Z,10.18
2022-12-16T05:53:41.239Z,11.00
2022-12-16T05:56:27.383Z,11.57
2022-12-16T05:59:12.932Z,10.10
2022-12-16T06:01:58.389Z,9.30
2022-12-16T06:04:44.377Z,13.85
2022-12-16T06:07:31.297Z,9.15
2022-12-16T06:10:17.322Z,10.48
2022-12-16T06:13:05.880Z,13.25
2022-12-16T06:15:52.570Z,6.60
2022-12-16T06:18:38.905Z,11.77
2022-12-16T06:21:25.481Z,11.50
2022-12-16T06:24:10.663Z,9.35
2022-12-16T06:26:55.926Z,8.57
2022-12-16T06:29:41.279Z,10.38
2022-12-16T06:32:26.665Z,7.47
2022-12-16T06:35:12.574Z,9.95
2022-12-16T06:37:58.033Z,10.93
2022-12-16T06:40:43.662Z,9.48
2022-12-16T06:43:29.310Z,6.90
2022-12-16T06:46:15.163Z,13.60
2022-12-16T06:49:00.529Z,6.90
2022-12-16T06:52:05.646Z,6.50
2022-12-16T06:54:51.341Z,5.25
2022-12-16T06:57:36.893Z,7.97
2022-12-16T07:00:22.747Z,10.88
2022-12-16T07:03:15.247Z,7.45
2022-12-16T07:06:00.674Z,11.00
2022-12-16T07:08:46.169Z,10.52
2022-12-16T07:11:31.543Z,6.40
2022-12-16T07:14:24.464Z,8.73
2022-12-16T07:17:15.246Z,10.25
2022-12-16T07:20:02.560Z,9.45
2022-12-16T07:22:51.132Z,8.65
2022-12-16T07:25:44.798Z,10.80
2022-12-16T07:28:30.216Z,7.65
2022-12-16T07:31:15.515Z,13.52
2022-12-16T07:34:01.552Z,5.15
2022-12-16T07:36:46.936Z,7.88
2022-12-16T07:39:32.627Z,7.95
2022-12-16T07:42:18.224Z,8.57
2022-12-16T07:45:04.012Z,6.25
2022-12-16T07:47:50.437Z,5.65
2022-12-16T07:50:36.527Z,9.23
2022-12-16T07:53:22.340Z,10.40
2022-12-16T07:56:07.833Z,6.57
2022-12-16T07:58:54.002Z,5.78
2022-12-16T08:01:41.140Z,4.90
2022-12-16T08:04:26.599Z,5.93
2022-12-16T08:07:12.771Z,5.25
2022-12-16T08:09:59.267Z,6.05
2022-12-16T08:12:45.354Z,4.13
2022-12-16T08:15:31.794Z,15.38
2022-12-16T08:18:18.479Z,4.10
2022-12-16T08:21:04.439Z,5.85
2022-12-16T08:23:49.910Z,5.30
2022-12-16T08:26:35.291Z,5.45
2022-12-16T08:32:28.059Z,6.13
2022-12-16T08:35:13.587Z,5.53
2022-12-16T08:37:58.996Z,4.68
2022-12-16T08:40:44.496Z,5.35
2022-12-16T08:43:30.184Z,4.93
2022-12-16T08:46:15.739Z,5.38
2022-12-16T08:49:01.414Z,6.95
2022-12-16T08:51:46.832Z,5.93
2022-12-16T08:54:32.438Z,7.65
2022-12-16T08:57:18.295Z,7.05
2022-12-16T09:00:04.076Z,5.03
2022-12-16T09:02:49.839Z,5.63
2022-12-16T09:05:36.606Z,6.50
2022-12-16T09:08:23.309Z,4.38
2022-12-16T09:11:08.872Z,5.22
2022-12-16T09:13:54.131Z,4.97
2022-12-16T09:16:43.689Z,6.07
2022-12-16T09:19:29.843Z,6.75
2022-12-16T09:22:15.127Z,5.68
2022-12-16T09:25:00.623Z,3.75
2022-12-16T09:27:46.068Z,5.70
2022-12-16T09:30:31.532Z,3.03
2022-12-16T09:33:16.912Z,4.75
2022-12-16T09:36:02.231Z,5.28
2022-12-16T09:38:47.545Z,4.88
2022-12-16T09:41:45.337Z,4.88
2022-12-16T09:44:48.961Z,4.57
2022-12-16T09:47:56.761Z,5.20
2022-12-16T09:50:49.176Z,5.72
2022-12-16T09:53:39.142Z,6.53
2022-12-16T09:56:33.113Z,6.95
2022-12-16T09:59:24.159Z,4.55
2022-12-16T10:02:10.855Z,8.95
2022-12-16T10:04:56.549Z,4.30
2022-12-16T10:07:43.863Z,4.03
2022-12-16T10:10:44.861Z,4.05
2022-12-16T10:13:59.322Z,5.32
2022-12-16T10:17:16.573Z,6.10
2022-12-16T10:20:23.545Z,4.18
2022-12-16T10:23:16.613Z,3.35
2022-12-16T10:26:12.660Z,3.05
2022-12-16T10:28:58.612Z,5.07
2022-12-16T10:31:44.032Z,5.00
2022-12-16T10:34:34.471Z,3.63
2022-12-16T10:37:21.413Z,3.55
2022-12-16T10:40:17.188Z,5.97
2022-12-16T10:43:23.030Z,5.57
2022-12-16T10:46:12.382Z,5.45
2022-12-16T10:48:57.740Z,5.97
2022-12-16T10:51:46.646Z,3.45
2022-12-16T10:54:38.086Z,3.85
2022-12-16T10:57:36.808Z,6.88
2022-12-16T11:00:52.726Z,4.35
2022-12-16T11:03:44.314Z,5.50
2022-12-16T11:06:34.099Z,4.97
2022-12-16T11:09:34.799Z,5.70
2022-12-16T11:12:52.626Z,6.68
2022-12-16T11:15:42.406Z,4.93
2022-12-16T11:18:31.914Z,5.53
2022-12-16T11:21:37.025Z,3.80
2022-12-16T11:24:26.754Z,4.05
2022-12-16T11:27:14.253Z,5.88
2022-12-16T11:30:18.071Z,5.50
2022-12-16T11:33:16.164Z,5.28
2022-12-16T11:36:12.221Z,4.15
2022-12-16T11:39:07.531Z,5.55
2022-12-16T11:44:52.936Z,3.83
2022-12-16T11:48:00.720Z,3.35
2022-12-16T11:50:48.207Z,3.58
2022-12-16T11:54:08.313Z,2.95
2022-12-16T11:57:05.105Z,3.45
2022-12-16T12:00:09.553Z,6.00
2022-12-16T12:03:03.729Z,3.70
2022-12-16T12:06:15.449Z,4.78
2022-12-16T12:09:19.621Z,3.47
2022-12-16T12:12:25.948Z,5.50
2022-12-16T12:15:43.041Z,7.40
2022-12-16T12:18:50.641Z,3.85
2022-12-16T12:21:58.091Z,5.97
2022-12-16T12:24:43.898Z,7.85
2022-12-16T12:28:07.639Z,5.40
2022-12-16T12:31:10.655Z,3.05
2022-12-16T12:34:31.180Z,5.43
2022-12-16T12:37:36.229Z,3.95
2022-12-16T12:40:50.985Z,4.32
2022-12-16T12:43:46.763Z,4.07
2022-12-16T12:46:51.405Z,4.47
2022-12-16T12:50:03.089Z,3.40
2022-12-16T12:53:14.426Z,4.22
2022-12-16T12:56:11.578Z,3.72
2022-12-16T12:58:58.201Z,3.25
2022-12-16T13:01:48.749Z,4.60
2022-12-16T13:04:38.031Z,4.47
2022-12-16T13:07:24.508Z,5.05
2022-12-16T13:10:34.900Z,3.67
2022-12-16T13:13:36.188Z,3.97
2022-12-16T13:16:27.748Z,3.97
2022-12-16T13:19:50.386Z,4.57
2022-12-16T13:22:55.778Z,4.07
2022-12-16T13:26:09.118Z,4.07
2022-12-16T13:28:57.766Z,4.25
2022-12-16T13:31:44.640Z,4.78
2022-12-16T13:34:35.653Z,3.95
2022-12-16T13:37:29.783Z,4.05
2022-12-16T13:40:21.150Z,5.15
2022-12-16T13:43:23.712Z,8.65
2022-12-16T13:46:18.420Z,7.47
2022-12-16T13:49:04.501Z,6.00
2022-12-16T13:51:56.590Z,6.75
2022-12-16T13:54:57.467Z,7.28
2022-12-16T13:57:47.460Z,8.60
2022-12-16T14:00:38.674Z,9.52
2022-12-16T14:03:50.705Z,7.05
2022-12-16T14:06:42.484Z,8.30
2022-12-16T14:09:50.895Z,9.35
2022-12-16T14:13:07.700Z,8.27
2022-12-16T14:15:53.803Z,7.07
2022-12-16T14:19:02.629Z,8.93
2022-12-16T14:22:19.378Z,7.93
2022-12-16T14:25:04.634Z,7.18
2022-12-16T14:27:52.959Z,9.35
2022-12-16T14:30:44.444Z,9.70
2022-12-16T14:33:45.656Z,9.50
2022-12-16T14:36:41.516Z,11.15
2022-12-16T14:39:49.592Z,9.32
2022-12-16T14:42:42.193Z,9.85
2022-12-16T14:45:41.871Z,11.95
2022-12-16T14:48:49.227Z,10.75
2022-12-16T14:51:47.004Z,11.00
2022-12-16T14:54:55.696Z,4.75
2022-12-16T14:57:44.312Z,5.65
2022-12-16T15:00:35.768Z,9.27
2022-12-16T15:03:30.404Z,8.70
2022-12-16T15:06:30.315Z,12.68
2022-12-16T15:09:20.859Z,8.07
2022-12-16T15:12:08.367Z,10.18
2022-12-16T15:14:58.240Z,13.05
2022-12-16T15:18:13.348Z,10.45
2022-12-16T15:21:11.702Z,14.65
2022-12-16T15:24:03.303Z,10.63
2022-12-16T15:27:05.663Z,12.10
2022-12-16T15:29:52.330Z,12.63
2022-12-16T15:32:44.559Z,12.27
2022-12-16T15:35:52.894Z,8.80
2022-12-16T15:38:38.288Z,9.60
2022-12-16T15:41:24.451Z,13.38
2022-12-16T15:44:10.907Z,8.77
2022-12-16T15:46:56.876Z,7.13
2022-12-16T15:50:06.109Z,5.68
2022-12-16T15:53:00.755Z,8.35
2022-12-16T15:55:46.201Z,6.35
2022-12-16T15:58:57.816Z,8.20
2022-12-16T16:01:45.407Z,7.55
2022-12-16T16:04:48.228Z,6.03
2022-12-16T16:07:34.575Z,5.72
2022-12-16T16:10:42.256Z,8.00
2022-12-16T16:13:29.293Z,7.50
2022-12-16T16:16:15.757Z,7.28
2022-12-16T16:19:01.816Z,12.88
2022-12-16T16:21:48.278Z,9.45
2022-12-16T16:24:33.831Z,10.18
2022-12-16T16:27:21.372Z,8.77
2022-12-16T16:30:06.628Z,8.93
2022-12-16T16:32:52.556Z,7.97
2022-12-16T16:35:41.304Z,7.30
2022-12-16T16:38:31.963Z,8.95
2022-12-16T16:41:17.423Z,4.85
2022-12-16T16:44:03.368Z,2.65
2022-12-16T16:47:02.346Z,5.15
2022-12-16T16:49:50.446Z,2.83
2022-12-16T16:52:38.283Z,1.95
2022-12-16T16:55:25.345Z,2.67
2022-12-16T16:58:10.912Z,4.28
2022-12-16T17:00:56.223Z,10.95
2022-12-16T17:03:42.384Z,9.77
2022-12-16T17:06:28.703Z,11.57
2022-12-16T17:09:14.194Z,9.15
2022-12-16T17:12:00.241Z,10.02
2022-12-16T17:14:46.377Z,13.50
2022-12-16T17:17:31.823Z,13.70
2022-12-16T17:20:17.140Z,14.63
2022-12-16T17:23:03.077Z,7.97
2022-12-16T17:25:48.380Z,5.18
2022-12-16T17:28:34.320Z,6.63
2022-12-16T17:31:19.664Z,9.65
2022-12-16T17:34:05.585Z,6.95
2022-12-16T17:36:51.432Z,8.90
2022-12-16T17:39:47.480Z,11.02
2022-12-16T17:42:33.305Z,9.85
2022-12-16T17:45:19.243Z,8.40
2022-12-16T17:48:04.562Z,10.30
2022-12-16T17:50:49.980Z,9.30
2022-12-16T17:53:36.996Z,12.20
2022-12-16T17:56:25.741Z,9.43
2022-12-16T17:59:14.568Z,16.33
2022-12-16T18:02:00.065Z,12.27
2022-12-16T18:04:45.750Z,10.95
2022-12-16T18:07:31.948Z,8.23
2022-12-16T18:10:18.009Z,11.70
2022-12-16T18:13:04.798Z,8.60
2022-12-16T18:15:50.956Z,8.63
2022-12-16T18:18:40.331Z,11.45
2022-12-16T18:21:32.942Z,10.13
2022-12-16T18:24:18.373Z,15.30
2022-12-16T18:27:06.987Z,13.63
2022-12-16T18:29:52.362Z,9.85
2022-12-16T18:32:38.236Z,5.85
2022-12-16T18:35:23.894Z,7.40
2022-12-16T18:38:14.795Z,13.70
2022-12-16T18:41:05.437Z,5.78
2022-12-16T18:43:51.158Z,9.10
2022-12-16T18:46:37.294Z,8.15
2022-12-16T18:49:22.804Z,9.85
2022-12-16T18:52:08.478Z,7.32
2022-12-16T18:54:53.886Z,9.68
2022-12-16T18:57:42.150Z,9.15
2022-12-16T19:00:28.127Z,8.20
2022-12-16T19:03:13.983Z,7.93
2022-12-16T19:05:59.173Z,4.60
2022-12-16T19:08:44.630Z,5.07
2022-12-16T19:11:30.409Z,6.65
2022-12-16T19:14:15.783Z,3.85
2022-12-16T19:17:01.737Z,4.95
2022-12-16T19:19:47.599Z,4.97
2022-12-16T19:22:32.978Z,7.60
2022-12-16T19:25:18.436Z,8.48
2022-12-16T19:28:07.281Z,10.63
2022-12-16T19:30:52.857Z,6.78
2022-12-16T19:33:41.781Z,9.60
2022-12-16T19:36:27.112Z,13.68
2022-12-16T19:39:12.980Z,7.97
2022-12-16T19:41:58.316Z,12.65
2022-12-16T19:44:43.556Z,10.27
2022-12-16T19:47:28.924Z,7.95
2022-12-16T19:50:14.249Z,7.13
2022-12-16T19:52:59.839Z,8.18
2022-12-16T19:55:45.730Z,11.23
2022-12-16T19:58:38.317Z,8.20
2022-12-16T20:01:28.010Z,10.35
2022-12-16T20:04:14.072Z,10.68
2022-12-16T20:07:00.982Z,10.38
2022-12-16T20:09:49.708Z,11.00
2022-12-16T20:12:35.986Z,19.92
2022-12-16T20:15:22.262Z,8.77
2022-12-16T20:18:08.080Z,4.10
2022-12-16T20:20:54.441Z,11.00
2022-12-16T20:23:41.266Z,9.77
2022-12-16T20:26:27.734Z,8.45
2022-12-16T20:29:13.522Z,10.38
2022-12-16T20:31:58.674Z,9.13
2022-12-16T20:34:44.045Z,7.50
2022-12-16T20:37:29.492Z,6.35
2022-12-16T20:40:14.937Z,9.65
2022-12-16T20:43:00.950Z,11.40
2022-12-16T20:45:47.231Z,13.05
2022-12-16T20:48:34.645Z,12.75
2022-12-16T20:51:26.510Z,4.05
2022-12-16T20:54:13.093Z,4.93
2022-12-16T20:56:59.004Z,5.25
2022-12-16T20:59:44.496Z,6.75
2022-12-16T21:02:48.168Z,6.15
2022-12-16T21:05:34.268Z,8.18
2022-12-16T21:08:19.934Z,10.43
2022-12-16T21:11:05.201Z,18.20
2022-12-16T21:13:50.647Z,11.85
2022-12-16T21:16:37.108Z,16.35
2022-12-16T21:19:32.802Z,13.32
2022-12-16T21:22:19.024Z,15.43
2022-12-16T21:25:04.551Z,19.50
2022-12-16T21:27:49.999Z,15.48
2022-12-16T21:30:35.433Z,19.15
2022-12-16T21:33:20.936Z,14.20
2022-12-16T21:36:11.009Z,12.85
2022-12-16T21:38:57.029Z,21.15
2022-12-16T21:41:42.391Z,13.95
2022-12-16T21:44:27.991Z,15.90
2022-12-16T21:47:13.206Z,12.57
2022-12-16T21:50:02.300Z,16.63
2022-12-16T21:52:47.774Z,20.00
2022-12-16T21:55:32.976Z,11.30
2022-12-16T21:58:18.786Z,15.93
2022-12-16T22:01:04.603Z,18.55
2022-12-16T22:03:54.716Z,16.83
2022-12-16T22:06:48.277Z,17.77
2022-12-16T22:09:35.392Z,21.58
2022-12-16T22:12:21.772Z,22.75
2022-12-16T22:15:07.740Z,13.18
2022-12-16T22:17:58.292Z,10.57
2022-12-16T22:20:45.417Z,14.50
2022-12-16T22:23:31.477Z,19.30
2022-12-16T22:26:18.815Z,18.08
2022-12-16T22:29:05.003Z,15.02
2022-12-16T22:31:50.322Z,11.25
2022-12-16T22:34:35.770Z,12.82
2022-12-16T22:37:21.154Z,19.25
2022-12-16T22:40:06.467Z,23.17
2022-12-16T22:42:52.004Z,14.02
2022-12-16T22:45:40.515Z,12.30
2022-12-16T22:48:25.836Z,18.08
2022-12-16T22:51:11.251Z,19.08
2022-12-16T22:53:56.743Z,16.90
2022-12-16T22:56:42.167Z,21.20
2022-12-16T22:59:27.618Z,22.70
2022-12-16T23:02:12.926Z,14.07
2022-12-16T23:04:58.519Z,13.38
2022-12-16T23:07:43.911Z,9.25
2022-12-16T23:10:29.932Z,20.70
2022-12-16T23:13:16.007Z,13.75
2022-12-16T23:16:02.432Z,12.93
2022-12-16T23:18:48.096Z,16.23
2022-12-16T23:21:37.377Z,18.85
2022-12-16T23:24:23.722Z,16.33
2022-12-16T23:27:09.314Z,14.38
2022-12-16T23:29:56.776Z,11.85
2022-12-16T23:32:43.289Z,18.20
2022-12-16T23:35:29.295Z,6.47
2022-12-16T23:38:19.946Z,9.05
2022-12-16T23:41:06.171Z,6.15
2022-12-16T23:43:52.288Z,12.57
2022-12-16T23:46:37.800Z,16.45
2022-12-16T23:49:23.261Z,17.20
2022-12-16T23:52:08.722Z,16.40
2022-12-16T23:54:55.106Z,25.70
2022-12-16T23:57:41.415Z,32.58
